Aviation Digital Data Service (ADDS)

Output produced by METARs form (2225 UTC 23 March 2019)
found at http://www.aviationweather.gov/metar/data/
 
METAR text: FZIC 231500Z 26006KT 7000 FEW048 35/22 Q1004 NOSIG
Conditions at: FZIC (KISANGANI , CD) observed 1500 UTC 23 March 2019
Temperature: 35.0°C (95°F)
Dewpoint: 22.0°C (72°F) [RH = 47%]
Pressure (altimeter): 29.65 inches Hg (1004.0 mb)
Winds: from the W (260 degrees) at 7 MPH (6 knots; 3.1 m/s)
Visibility: 4 miles ( 7 km)
Ceiling: at least 12,000 feet AGL
Clouds: few clouds at 4800 feet AGL
Weather: no significant weather observed at this time

METAR text: FZIC 231400Z 31004KT 8000 FEW044 36/21 Q1004 NOSIG
Conditions at: FZIC (KISANGANI , CD) observed 1400 UTC 23 March 2019
Temperature: 36.0°C (97°F)
Dewpoint: 21.0°C (70°F) [RH = 42%]
Pressure (altimeter): 29.65 inches Hg (1004.0 mb)
Winds: from the NW (310 degrees) at 5 MPH (4 knots; 2.1 m/s)
Visibility: 5 miles ( 8 km)
Ceiling: at least 12,000 feet AGL
Clouds: few clouds at 4400 feet AGL
Weather: no significant weather observed at this time

METAR text: FZIC 231300Z 27008KT 8000 FEW044 36/21 Q1005 NOSIG
Conditions at: FZIC (KISANGANI , CD) observed 1300 UTC 23 March 2019
Temperature: 36.0°C (97°F)
Dewpoint: 21.0°C (70°F) [RH = 42%]
Pressure (altimeter): 29.68 inches Hg (1005.0 mb)
Winds: from the W (270 degrees) at 9 MPH (8 knots; 4.1 m/s)
Visibility: 5 miles ( 8 km)
Ceiling: at least 12,000 feet AGL
Clouds: few clouds at 4400 feet AGL
Weather: no significant weather observed at this time

METAR text: FZIC 231200Z 16008KT 8000 FEW040 36/23 Q1007 NOSIG
Conditions at: FZIC (KISANGANI , CD) observed 1200 UTC 23 March 2019
Temperature: 36.0°C (97°F)
Dewpoint: 23.0°C (73°F) [RH = 47%]
Pressure (altimeter): 29.73 inches Hg (1007.0 mb)
Winds: from the SSE (160 degrees) at 9 MPH (8 knots; 4.1 m/s)
Visibility: 5 miles ( 8 km)
Ceiling: at least 12,000 feet AGL
Clouds: few clouds at 4000 feet AGL
Weather: no significant weather observed at this time

METAR text: FZIC 231100Z 27006KT 8000 NSC 35/22 Q1008 NOSIG
Conditions at: FZIC (KISANGANI , CD) observed 1100 UTC 23 March 2019
Temperature: 35.0°C (95°F)
Dewpoint: 22.0°C (72°F) [RH = 47%]
Pressure (altimeter): 29.76 inches Hg (1008.0 mb)
Winds: from the W (270 degrees) at 7 MPH (6 knots; 3.1 m/s)
Visibility: 5 miles ( 8 km)
Ceiling: at least 12,000 feet AGL
Clouds: sky clear below 12,000 feet AGL
Weather: no significant weather observed at this time

METAR text: FZIC 231000Z 27006KT 8000 NSC 33/21 Q1009 NOSIG
Conditions at: FZIC (KISANGANI , CD) observed 1000 UTC 23 March 2019
Temperature: 33.0°C (91°F)
Dewpoint: 21.0°C (70°F) [RH = 49%]
Pressure (altimeter): 29.79 inches Hg (1009.0 mb)
Winds: from the W (270 degrees) at 7 MPH (6 knots; 3.1 m/s)
Visibility: 5 miles ( 8 km)
Ceiling: at least 12,000 feet AGL
Clouds: sky clear below 12,000 feet AGL
Weather: no significant weather observed at this time

METAR text: FZIC 230900Z 16006KT 8000 NSC 32/21 Q1010 NOSIG
Conditions at: FZIC (KISANGANI , CD) observed 0900 UTC 23 March 2019
Temperature: 32.0°C (90°F)
Dewpoint: 21.0°C (70°F) [RH = 52%]
Pressure (altimeter): 29.82 inches Hg (1010.0 mb)
Winds: from the SSE (160 degrees) at 7 MPH (6 knots; 3.1 m/s)
Visibility: 5 miles ( 8 km)
Ceiling: at least 12,000 feet AGL
Clouds: sky clear below 12,000 feet AGL
Weather: no significant weather observed at this time

METAR text: FZIC 230700Z 27006KT 6000 NSC 27/22 Q1010 NOSIG
Conditions at: FZIC (KISANGANI , CD) observed 0700 UTC 23 March 2019
Temperature: 27.0°C (81°F)
Dewpoint: 22.0°C (72°F) [RH = 74%]
Pressure (altimeter): 29.82 inches Hg (1010.0 mb)
Winds: from the W (270 degrees) at 7 MPH (6 knots; 3.1 m/s)
Visibility: 4 miles ( 6 km)
Ceiling: at least 12,000 feet AGL
Clouds: sky clear below 12,000 feet AGL
Weather: no significant weather observed at this time

METAR text: FZIC 221400Z 18006KT 8000 SCT028 34/24 Q1005 NOSIG
Conditions at: FZIC (KISANGANI , CD) observed 1400 UTC 22 March 2019
Temperature: 34.0°C (93°F)
Dewpoint: 24.0°C (75°F) [RH = 56%]
Pressure (altimeter): 29.68 inches Hg (1005.0 mb)
Winds: from the S (180 degrees) at 7 MPH (6 knots; 3.1 m/s)
Visibility: 5 miles ( 8 km)
Ceiling: at least 12,000 feet AGL
Clouds: scattered clouds at 2800 feet AGL
Weather: no significant weather observed at this time

METAR text: FZIC 221300Z 23009KT 9999 FEW028 34/24 Q1007 NOSIG
Conditions at: FZIC (KISANGANI , CD) observed 1300 UTC 22 March 2019
Temperature: 34.0°C (93°F)
Dewpoint: 24.0°C (75°F) [RH = 56%]
Pressure (altimeter): 29.73 inches Hg (1007.0 mb)
Winds: from the SW (230 degrees) at 10 MPH (9 knots; 4.6 m/s)
Visibility: 6 or more miles (10+ km)
Ceiling: at least 12,000 feet AGL
Clouds: few clouds at 2800 feet AGL
Weather: no significant weather observed at this time

METAR text: FZIC 221200Z 27006KT 9999 FEW026 34/24 Q1008 NOSIG
Conditions at: FZIC (KISANGANI , CD) observed 1200 UTC 22 March 2019
Temperature: 34.0°C (93°F)
Dewpoint: 24.0°C (75°F) [RH = 56%]
Pressure (altimeter): 29.76 inches Hg (1008.0 mb)
Winds: from the W (270 degrees) at 7 MPH (6 knots; 3.1 m/s)
Visibility: 6 or more miles (10+ km)
Ceiling: at least 12,000 feet AGL
Clouds: few clouds at 2600 feet AGL
Weather: no significant weather observed at this time

METAR text: FZIC 221100Z 18006KT 9000 FEW024 33/23 Q1009 NOSIG
Conditions at: FZIC (KISANGANI , CD) observed 1100 UTC 22 March 2019
Temperature: 33.0°C (91°F)
Dewpoint: 23.0°C (73°F) [RH = 56%]
Pressure (altimeter): 29.79 inches Hg (1009.0 mb)
Winds: from the S (180 degrees) at 7 MPH (6 knots; 3.1 m/s)
Visibility: 6 miles ( 9 km)
Ceiling: at least 12,000 feet AGL
Clouds: few clouds at 2400 feet AGL
Weather: no significant weather observed at this time

Forecast for: FZIC (KISANGANI , CD)
Text: TAF FZIC 231100Z 2312/2418 05008KT 8000 FEW026 FEW024CB
Forecast period: 1200 to 1500 UTC 23 March 2019
Forecast type: FROM: standard forecast or significant change
Winds: from the NE (50 degrees) at 9 MPH (8 knots; 4.1 m/s)
Visibility: 5 miles (8 km)
Ceiling: at least 12,000 feet AGL
Clouds: few clouds at 2400 feet AGL
few clouds at 2600 feet AGL
Weather: no significant weather forecast for this period
Text: BECMG 2315/1317 00000KT NSC
Forecast period: 1500 UTC 23 March 2019 to 0500 UTC 24 March 2019
Forecast type: BECOMING: Conditions expected to become as follows by 1700 UTC 13 March 2019
Winds: calm
Visibility: 5 miles (8 km)
Ceiling: unknown
Clouds: missing
Weather: no significant weather forecast for this period
Text: TEMPO 2322/2401 12006G24KT -TSRA FEW022CB
Forecast period: 2200 UTC 23 March 2019 to 0100 UTC 24 March 2019
Forecast type: TEMPORARY: The following changes expected for less than half the time period
Winds: from the ESE (120 degrees) at 7 MPH (6 knots; 3.1 m/s)
gusting to 28 MPH (24 knots; 12.3 m/s)
Visibility: missing
Ceiling: at least 12,000 feet AGL
Clouds: few clouds at 2200 feet AGL
Weather: -TSRA  (light rain associated with thunderstorm(s))
Text: BECMG 2405/2407 16008KT SCT013
Forecast period: 0500 to 1800 UTC 24 March 2019
Forecast type: BECOMING: Conditions expected to become as follows by 0700 UTC 24 March 2019
Winds: from the SSE (160 degrees) at 9 MPH (8 knots; 4.1 m/s)
Visibility: 5 miles (8 km)
Ceiling: at least 12,000 feet AGL
Clouds: scattered clouds at 1300 feet AGL
Weather: no significant weather forecast for this period